Terminal Aerodrome Forecast
Issued by NWS

Home | Current Version | Previous Version | Text Only | Print | Product List | Glossary On
Versions: 1 2 3 4 5 6 7 8 9 10 11 12 13 14 15 16 17 18 19 20 21 22 23 24 25
000
FTUS43 KDLH 230736 AAA
TAFBRD
TAF AMD
KBRD 230736Z 2308/2406 06004KT 1 1/2SM -SN BR OVC018
     FM231200 00000KT P6SM VCSH OVC015
     FM231300 00000KT P6SM VCSH OVC020
     FM231400 32004KT P6SM BKN040
     FM232000 30006KT P6SM BKN025
     FM232200 29006KT P6SM SCT025=

USA.gov is the U.S. government's official web portal to all federal, state and local government web resources and services.